Fredericksburg, TX

4:34 PM CDT on August 29, 2016 (GMT -0500)
The Computer Haus | | Change Station

Elev 1722 ft 30.29 °N, 98.87 °W | Updated 7 seconds ago

Mostly Cloudy
Mostly Cloudy
85.3 °F
Feels Like 85 °F
N
0.0
Wind Variable Wind from North
Gusts 0.0 mph

Today
High -- | Low -- °F
--% Chance of Precip.
Yesterday
High -- | Low -- °F
Precip. -- in
Pressure 29.99 in
Visibility 10.0 miles
Clouds Scattered Clouds 3900 ft
Scattered Clouds 5000 ft
Mostly Cloudy 8000 ft
Heat Index 85 °F
Dew Point 61 °F
Humidity 44%
Rainfall 0.00 in
Snow Depth Not available.
7:10 AM 8:01 PM
Waning Crescent, 7% visible
METAR KT82 292115Z AUTO 06007KT 10SM SCT039 SCT050 BKN080 28/20 A2999 RMK AO2 T02780196
Pressure 29.99 in
Visibility 10.0 miles
Clouds Scattered Clouds 3900 ft
Scattered Clouds 5000 ft
Mostly Cloudy 8000 ft
Heat Index 85 °F
Dew Point 61 °F
Humidity 44%
Rainfall 0.00 in
Snow Depth Not available.
7:10 AM 8:01 PM
Waning Crescent, 7% visible
METAR KT82 292115Z AUTO 06007KT 10SM SCT039 SCT050 BKN080 28/20 A2999 RMK AO2 T02780196

10-Day Weather Forecast

Almanac

Astronomy

Aug. 29, 2016 Rise Set
Actual Time
Civil Twilight
Nautical Twilight
Astronomical Twilight
Moon
Length of Visible Light
Length of Day
Tomorrow will be .
, % of the Moon is Illuminated

Today's Extremes

State Highs State Lows

Community

WunderPhotos

Upload Photos

1,935,679 photos uploaded!

WunderBlog® & News

Nearby

Air Quality

  Air Quality AQ Index Pollutant
Not available.

Snow Depth

Station Depth Elevation

Earthquake Activity

City Distance Mag. Time & Date
Minimum magnitude displayed is 2.5.

Coastal Water Temperatures

Place Temperature

Stations

Nearby Weather Stations

Station Location Temp. Windchill Dew Point Humidity Wind Precip. Elev Updated Type
                   

Watches & Warnings

There are currently no watches in effect.